»·PEaware :: DAL776 KBUR-KPHX

DAL776 :: KBUR-KPHX

FLIGHT INFORMATION

Flight Status: Arrived
Operator:
Delta Air Lines
More flights by this operator :: More flights under this callsign
Pilot: Charles S. (11412)
Aircraft: BOEING 757-200
(B752)
More flights by this aircraft type
Origin: KBUR Bob Hope-Burbank
United States
Destination: KPHX Phoenix Sky Harbor Intl
United States
More flights between these airports :: More routes between these airports
Route: +SLAPP1 HEC PRFUM WOTRO BRUSR1
File this flight plan on PilotEdge
Remarks:
Altitude:
(Current/Filed)
37,000ft
Speed:
(Current/Filed)
115kts
Departed: 01-Oct-17 11:43 AM
Arrived: 01-Oct-17 12:55 PM
Distance/Time
Traveled:
320nm/1:12
Distance/Time
To Go:
Arrived

Flight Plot

Page will automatically refresh every two minutes.

Flight plan parsing failed; only flown route is shown


Map Options




Map Legend


Flown Route
Filed Route
Departure Airport
Arrival Airport
Navaid (VOR, NDB)
Fix

Horizontal Profiles

Position Reports

Time Latitude Longitude Heading Altitude Ground
Speed
01-Oct-17 11:32 34.195414 -118.354800 63 707ft 0kts
01-Oct-17 11:33 34.195414 -118.354800 63 707ft 0kts
01-Oct-17 11:34 34.195414 -118.354800 63 707ft 0kts
01-Oct-17 11:35 34.195414 -118.354800 63 707ft 0kts
01-Oct-17 11:36 34.195414 -118.354800 63 707ft 0kts
01-Oct-17 11:37 34.195414 -118.354800 63 707ft 0kts
01-Oct-17 11:38 34.195414 -118.354800 63 707ft 0kts
01-Oct-17 11:39 34.195414 -118.354800 63 707ft 0kts
01-Oct-17 11:40 34.195414 -118.354800 63 707ft 0kts
01-Oct-17 11:41 34.195414 -118.354800 63 707ft 0kts
01-Oct-17 11:42 34.195373 -118.354898 62 707ft 2kts
01-Oct-17 11:43 34.196648 -118.355510 347 711ft 9kts
01-Oct-17 11:44 34.200048 -118.355695 342 719ft 2kts
01-Oct-17 11:45 34.206111 -118.357382 349 744ft 9kts
01-Oct-17 11:46 34.211536 -118.358975 333 770ft 14kts
01-Oct-17 11:47 34.209454 -118.359683 168 766ft 68kts
01-Oct-17 11:48 34.176807 -118.354711 208 2555ft 169kts
01-Oct-17 11:49 34.139536 -118.398544 244 4642ft 249kts
01-Oct-17 11:50 34.145164 -118.451122 312 5859ft 249kts
01-Oct-17 11:51 34.169545 -118.467214 347 6769ft 248kts
01-Oct-17 11:52 34.248118 -118.482243 350 9492ft 255kts
01-Oct-17 11:53 34.316018 -118.499277 357 11743ft 265kts
01-Oct-17 11:54 34.368485 -118.442383 72 13191ft 291kts
01-Oct-17 11:55 34.380383 -118.389575 56 14058ft 295kts
01-Oct-17 11:56 34.483633 -118.317814 34 15946ft 354kts
01-Oct-17 11:57 34.549093 -118.249410 35 16875ft 360kts
01-Oct-17 11:58 34.619602 -118.178252 34 17830ft 365kts
01-Oct-17 11:59 34.683316 -118.081697 65 18695ft 381kts
01-Oct-17 12:00 34.696425 -117.953328 85 18989ft 386kts
01-Oct-17 12:01 34.702187 -117.819286 81 20728ft 421kts
01-Oct-17 12:02 34.708792 -117.682584 82 21999ft 431kts
01-Oct-17 12:03 34.714457 -117.537031 82 22933ft 438kts
01-Oct-17 12:04 34.725306 -117.390557 80 22944ft 436kts
01-Oct-17 12:05 34.736655 -117.247902 80 23431ft 440kts
01-Oct-17 12:06 34.748577 -117.098914 80 24698ft 448kts
01-Oct-17 12:07 34.757809 -116.945812 85 26000ft 464kts
01-Oct-17 12:08 34.770339 -116.788339 82 27379ft 474kts
01-Oct-17 12:09 34.783120 -116.626947 82 28795ft 484kts
01-Oct-17 12:10 34.797816 -116.464199 73 30203ft 491kts
01-Oct-17 12:11 34.840766 -116.308361 67 31612ft 493kts
01-Oct-17 12:12 34.886947 -116.149615 67 32996ft 500kts
01-Oct-17 12:13 34.933264 -115.990173 66 34334ft 501kts
01-Oct-17 12:14 34.979574 -115.829782 65 35671ft 502kts
01-Oct-17 12:15 35.025466 -115.669903 64 36934ft 504kts
01-Oct-17 12:16 35.071978 -115.507427 64 36872ft 507kts
01-Oct-17 12:17 35.117239 -115.348514 65 36851ft 507kts
01-Oct-17 12:18 35.160947 -115.193675 65 36810ft 508kts
01-Oct-17 12:19 35.205255 -115.041395 63 36763ft 514kts
01-Oct-17 12:20 35.251320 -114.876078 66 36793ft 518kts
01-Oct-17 12:21 35.297109 -114.711670 64 36775ft 517kts
01-Oct-17 12:22 35.343195 -114.544914 64 36773ft 517kts
01-Oct-17 12:23 35.388724 -114.378815 64 36827ft 518kts
01-Oct-17 12:24 35.433617 -114.214007 64 36919ft 518kts
01-Oct-17 12:25 35.477489 -114.045649 70 36885ft 521kts
01-Oct-17 12:26 35.489572 -113.868580 89 36894ft 531kts
01-Oct-17 12:27 35.458758 -113.693023 108 36895ft 535kts
01-Oct-17 12:28 35.387254 -113.534384 127 36899ft 533kts
01-Oct-17 12:29 35.289598 -113.412636 139 36928ft 529kts
01-Oct-17 12:30 35.186518 -113.286662 134 36132ft 523kts
01-Oct-17 12:31 35.090967 -113.155443 124 35012ft 517kts
01-Oct-17 12:32 35.010202 -113.013201 125 33791ft 504kts
01-Oct-17 12:33 34.932371 -112.880053 125 32206ft 469kts
01-Oct-17 12:34 34.857554 -112.754718 129 30776ft 453kts
01-Oct-17 12:35 34.784345 -112.631863 129 29494ft 443kts
01-Oct-17 12:36 34.713565 -112.511781 128 28193ft 434kts
01-Oct-17 12:37 34.629764 -112.417570 144 26391ft 404kts
01-Oct-17 12:38 34.544451 -112.333780 145 24612ft 390kts
01-Oct-17 12:39 34.462603 -112.253661 146 22800ft 376kts
01-Oct-17 12:40 34.370362 -112.213533 172 21010ft 354kts
01-Oct-17 12:41 34.275505 -112.188723 172 19321ft 345kts
01-Oct-17 12:42 34.183973 -112.165162 172 17616ft 336kts
01-Oct-17 12:43 34.093837 -112.141828 171 15894ft 329kts
01-Oct-17 12:44 34.007942 -112.108628 165 14190ft 325kts
01-Oct-17 12:45 33.923504 -112.073642 164 12423ft 320kts
01-Oct-17 12:46 33.842825 -112.038149 162 11073ft 300kts
01-Oct-17 12:47 33.767534 -112.006642 163 9559ft 285kts
01-Oct-17 12:48 33.693576 -111.977069 163 8486ft 280kts
01-Oct-17 12:49 33.620901 -111.947670 163 7755ft 277kts
01-Oct-17 12:50 33.551023 -111.919499 159 7036ft 254kts
01-Oct-17 12:51 33.516391 -111.848540 113 6660ft 257kts
01-Oct-17 12:52 33.492018 -111.772087 114 5710ft 244kts
01-Oct-17 12:53 33.440067 -111.743928 196 4619ft 215kts
01-Oct-17 12:54 33.433051 -111.804889 280 4234ft 209kts
01-Oct-17 12:55 33.439401 -111.866042 267 3189ft 170kts
01-Oct-17 12:56 33.440594 -111.916333 266 2387ft 147kts
01-Oct-17 12:57 33.440837 -111.965139 266 1619ft 147kts
01-Oct-17 12:58 33.440874 -112.008228 265 1134ft 89kts
01-Oct-17 12:59 33.438921 -112.017670 162 1125ft 16kts
01-Oct-17 13:00 33.438873 -112.009375 102 1130ft 41kts

Navigation Log

Ident Type
Flight plan parsing failed, navigation log unavailable